| time (UTC) | temp F | wind direction | speed MPH | gust MPH | rain 1hr in | rain 24hr in | rain mn in | humidity % | barometer mb |
| 20260504231518 | 67 | 260 | 0.0 | 2.0 | 0.00 | 0.00 | 0.00 | 37 | 1005.9 |
| 20260504231008 | 67 | 261 | 1.0 | 2.0 | 0.00 | 0.00 | 0.00 | 37 | 1005.9 |
| 20260504230509 | 68 | 227 | 0.0 | 4.0 | 0.00 | 0.00 | 0.00 | 36 | 1005.8 |
| 20260504230021 | 68 | 222 | 1.0 | 5.0 | 0.00 | 0.00 | 0.00 | 34 | 1005.7 |
| 20260504225511 | 68 | 217 | 1.0 | 5.0 | 0.00 | 0.00 | 0.00 | 35 | 1005.7 |
| 20260504225008 | 68 | 220 | 0.0 | 5.0 | 0.00 | 0.00 | 0.00 | 35 | 1005.6 |
| 20260504224526 | 68 | 264 | 2.0 | 5.0 | 0.00 | 0.00 | 0.00 | 34 | 1005.4 |
| 20260504224007 | 68 | 216 | 1.0 | 3.0 | 0.00 | 0.00 | 0.00 | 35 | 1005.5 |
| 20260504223503 | 68 | 225 | 0.0 | 2.0 | 0.00 | 0.00 | 0.00 | 35 | 1005.5 |
| 20260504223014 | 68 | 213 | 0.0 | 3.0 | 0.00 | 0.00 | 0.00 | 35 | 1005.5 |
| 20260504222508 | 68 | 219 | 1.0 | 4.0 | 0.00 | 0.00 | 0.00 | 34 | 1005.3 |
| 20260504222008 | 68 | 259 | 0.0 | 4.0 | 0.00 | 0.00 | 0.00 | 35 | 1005.3 |
| 20260504221518 | 69 | 250 | 1.0 | 6.0 | 0.00 | 0.00 | 0.00 | 34 | 1005.3 |
| 20260504221008 | 69 | 238 | 1.0 | 6.0 | 0.00 | 0.00 | 0.00 | 32 | 1005.4 |
| 20260504220505 | 69 | 243 | 3.0 | 6.0 | 0.00 | 0.00 | 0.00 | 32 | 1005.4 |
| 20260504220022 | 70 | 250 | 3.0 | 7.0 | 0.00 | 0.00 | 0.00 | 32 | 1005.4 |
| 20260504215509 | 70 | 157 | 2.0 | 7.0 | 0.00 | 0.00 | 0.00 | 32 | 1005.5 |
| 20260504215008 | 70 | 294 | 1.0 | 6.0 | 0.00 | 0.00 | 0.00 | 33 | 1005.5 |
| 20260504214526 | 70 | 196 | 1.0 | 6.0 | 0.00 | 0.00 | 0.00 | 31 | 1005.5 |
| 20260504214009 | 70 | 294 | 2.0 | 7.0 | 0.00 | 0.00 | 0.00 | 33 | 1005.5 |
| 20260504213508 | 70 | 247 | 1.0 | 7.0 | 0.00 | 0.00 | 0.00 | 32 | 1005.4 |
| 20260504213024 | 70 | 291 | 2.0 | 7.0 | 0.00 | 0.00 | 0.00 | 31 | 1005.4 |
| 20260504212503 | 70 | 240 | 2.0 | 7.0 | 0.00 | 0.00 | 0.00 | 33 | 1005.3 |
| 20260504212007 | 69 | 273 | 2.0 | 6.0 | 0.00 | 0.00 | 0.00 | 33 | 1005.4 |
| 20260504211514 | 69 | 260 | 2.0 | 7.0 | 0.00 | 0.00 | 0.00 | 33 | 1005.4 |
| 20260504211004 | 70 | 260 | 2.0 | 8.0 | 0.00 | 0.00 | 0.00 | 32 | 1005.4 |
| 20260504210505 | 70 | 254 | 2.0 | 14.0 | 0.00 | 0.00 | 0.00 | 30 | 1005.2 |
| 20260504205511 | 71 | 297 | 4.0 | 12.0 | 0.00 | 0.00 | 0.00 | 31 | 1005.2 |
| 20260504205009 | 70 | 323 | 4.0 | 10.0 | 0.00 | 0.00 | 0.00 | 32 | 1005.2 |
| 20260504204523 | 70 | 303 | 3.0 | 9.0 | 0.00 | 0.00 | 0.00 | 31 | 1005.2 |
| 20260504204011 | 70 | 294 | 3.0 | 9.0 | 0.00 | 0.00 | 0.00 | 31 | 1005.3 |
| 20260504203513 | 70 | 284 | 4.0 | 7.0 | 0.00 | 0.00 | 0.00 | 32 | 1005.2 |
| 20260504203034 | 70 | 217 | 3.0 | 7.0 | 0.00 | 0.00 | 0.00 | 33 | 1005.2 |
| 20260504202507 | 70 | 221 | 0.0 | 8.0 | 0.00 | 0.00 | 0.00 | 31 | 1005.2 |
| 20260504202010 | 71 | 271 | 3.0 | 9.0 | 0.00 | 0.00 | 0.00 | 32 | 1005.3 |
| 20260504201014 | 70 | 226 | 3.0 | 8.0 | 0.00 | 0.00 | 0.00 | 32 | 1005.2 |
| 20260504200507 | 70 | 216 | 3.0 | 8.0 | 0.00 | 0.00 | 0.00 | 31 | 1005.4 |
| 20260504195508 | 70 | 296 | 1.0 | 7.0 | 0.00 | 0.00 | 0.00 | 33 | 1005.4 |
| 20260504195009 | 70 | 267 | 2.0 | 11.0 | 0.00 | 0.00 | 0.00 | 33 | 1005.4 |
| 20260504194010 | 70 | 234 | 3.0 | 8.0 | 0.00 | 0.00 | 0.00 | 32 | 1005.4 |
| 20260504193512 | 70 | 294 | 3.0 | 8.0 | 0.00 | 0.00 | 0.00 | 31 | 1005.4 |
| 20260504193024 | 70 | 288 | 2.0 | 10.0 | 0.00 | 0.00 | 0.00 | 33 | 1005.4 |
| 20260504192509 | 70 | 289 | 4.0 | 13.0 | 0.00 | 0.00 | 0.00 | 31 | 1005.4 |
| 20260504192010 | 69 | 219 | 5.0 | 11.0 | 0.00 | 0.00 | 0.00 | 32 | 1005.5 |
| 20260504191526 | 70 | 246 | 3.0 | 9.0 | 0.00 | 0.00 | 0.00 | 31 | 1005.6 |
| 20260504191014 | 70 | 236 | 2.0 | 9.0 | 0.00 | 0.00 | 0.00 | 33 | 1005.5 |
| 20260504190504 | 70 | 221 | 3.0 | 7.0 | 0.00 | 0.00 | 0.00 | 32 | 1005.5 |
| 20260504190019 | 69 | 267 | 2.0 | 7.0 | 0.00 | 0.00 | 0.00 | 34 | 1005.6 |
| 20260504185507 | 68 | 169 | 2.0 | 7.0 | 0.00 | 0.00 | 0.00 | 35 | 1005.6 |
| 20260504185003 | 68 | 294 | 3.0 | 8.0 | 0.00 | 0.00 | 0.00 | 34 | 1005.5 |
| 20260504184504 | 68 | 263 | 3.0 | 8.0 | 0.00 | 0.00 | 0.00 | 32 | 1005.6 |
| 20260504184003 | 68 | 255 | 3.0 | 6.0 | 0.00 | 0.00 | 0.00 | 33 | 1005.6 |
| 20260504183503 | 68 | 282 | 1.0 | 6.0 | 0.00 | 0.00 | 0.00 | 32 | 1005.7 |
| 20260504183006 | 68 | 259 | 2.0 | 5.0 | 0.00 | 0.00 | 0.00 | 33 | 1005.6 |
| 20260504182510 | 68 | 274 | 1.0 | 5.0 | 0.00 | 0.00 | 0.00 | 32 | 1005.7 |
| 20260504182006 | 68 | 215 | 1.0 | 5.0 | 0.00 | 0.00 | 0.00 | 33 | 1005.7 |
| 20260504181004 | 68 | 274 | 2.0 | 8.0 | 0.00 | 0.00 | 0.00 | 33 | 1005.6 |
| 20260504180506 | 68 | 258 | 2.0 | 6.0 | 0.00 | 0.00 | 0.00 | 33 | 1005.7 |
| 20260504180017 | 68 | 222 | 2.0 | 8.0 | 0.00 | 0.00 | 0.00 | 32 | 1005.6 |
| 20260504175505 | 68 | 213 | 3.0 | 11.0 | 0.00 | 0.00 | 0.00 | 32 | 1005.6 |
| 20260504175006 | 68 | 206 | 2.0 | 11.0 | 0.00 | 0.00 | 0.00 | 33 | 1005.7 |
| 20260504174003 | 69 | 290 | 4.0 | 13.0 | 0.00 | 0.00 | 0.00 | 30 | 1005.7 |
| 20260504173502 | 69 | 285 | 5.0 | 13.0 | 0.00 | 0.00 | 0.00 | 31 | 1005.8 |
| 20260504173005 | 70 | 261 | 4.0 | 12.0 | 0.00 | 0.00 | 0.00 | 30 | 1005.9 |
| 20260504172504 | 71 | 223 | 2.0 | 12.0 | 0.00 | 0.00 | 0.00 | 32 | 1005.9 |
| 20260504172004 | 70 | 273 | 4.0 | 9.0 | 0.00 | 0.00 | 0.00 | 31 | 1006.0 |
| 20260504171006 | 69 | 226 | 4.0 | 12.0 | 0.00 | 0.00 | 0.00 | 31 | 1005.9 |
| 20260504170505 | 69 | 242 | 4.0 | 12.0 | 0.00 | 0.00 | 0.00 | 31 | 1005.9 |
| 20260504141003 | 61 | 210 | 2.0 | 7.0 | 0.00 | 0.00 | 0.00 | 45 | 1007.9 |
| 20260504140503 | 61 | 305 | 3.0 | 7.0 | 0.00 | 0.00 | 0.00 | 43 | 1008.0 |
| 20260504130508 | 54 | 228 | 1.0 | 5.0 | 0.00 | 0.00 | 0.00 | 53 | 1008.6 |
| 20260504110506 | 45 | 217 | 0.0 | 2.0 | 0.00 | 0.00 | 0.00 | 63 | 1009.7 |
| 20260504100510 | 44 | 211 | 1.0 | 2.0 | 0.00 | 0.00 | 0.00 | 64 | 1009.4 |
| 20260504082002 | 41 | 280 | 0.0 | 0.0 | 0.00 | 0.00 | 0.00 | 79 | 1009.4 |
| 20260504081514 | 40 | 280 | 0.0 | 0.0 | 0.00 | 0.00 | 0.00 | 78 | 1009.4 |
| 20260504081004 | 40 | 280 | 0.0 | 2.0 | 0.00 | 0.00 | 0.00 | 78 | 1009.4 |
| 20260504080507 | 41 | 280 | 0.0 | 2.0 | 0.00 | 0.00 | 0.00 | 76 | 1009.4 |
| 20260504050506 | 36 | 280 | 0.0 | 2.0 | 0.00 | 0.00 | 0.00 | 83 | 1009.1 |
| 20260504050012 | 35 | 280 | 0.0 | 0.0 | 0.00 | 0.00 | 0.00 | 85 | 1009.2 |
| 20260504045503 | 35 | 280 | 0.0 | 0.0 | 0.00 | 0.00 | 0.00 | 85 | 1009.2 |
| 20260504045004 | 35 | 280 | 0.0 | 0.0 | 0.00 | 0.00 | 0.00 | 84 | 1009.2 |
| 20260504044517 | 35 | 280 | 0.0 | 0.0 | 0.00 | 0.00 | 0.00 | 85 | 1009.2 |
| 20260504044007 | 35 | 280 | 0.0 | 2.0 | 0.00 | 0.00 | 0.00 | 84 | 1009.2 |
| 20260504043508 | 35 | 280 | 0.0 | 2.0 | 0.00 | 0.00 | 0.00 | 84 | 1009.2 |
| 20260504043026 | 36 | 280 | 0.0 | 0.0 | 0.00 | 0.00 | 0.00 | 83 | 1009.2 |
| 20260504042508 | 36 | 280 | 0.0 | 0.0 | 0.00 | 0.00 | 0.00 | 85 | 1009.3 |
| 20260504042007 | 36 | 280 | 0.0 | 0.0 | 0.00 | 0.00 | 0.00 | 85 | 1009.2 |
| 20260504041526 | 36 | 280 | 0.0 | 0.0 | 0.00 | 0.00 | 0.00 | 83 | 1009.2 |
| 20260504041004 | 36 | 280 | 0.0 | 0.0 | 0.00 | 0.00 | 0.00 | 84 | 1009.2 |
| 20260504040504 | 36 | 280 | 0.0 | 0.0 | 0.00 | 0.00 | 0.00 | 84 | 1009.1 |
| 20260504040010 | 36 | 280 | 0.0 | 0.0 | 0.00 | 0.00 | 0.00 | 84 | 1009.2 |
| 20260504035506 | 36 | 280 | 0.0 | 0.0 | 0.00 | 0.00 | 0.00 | 84 | 1009.1 |
| 20260504035004 | 36 | 280 | 0.0 | 0.0 | 0.00 | 0.00 | 0.00 | 84 | 1009.2 |
| 20260504034516 | 36 | 280 | 0.0 | 0.0 | 0.00 | 0.00 | 0.00 | 84 | 1009.2 |
| 20260504034010 | 37 | 280 | 0.0 | 0.0 | 0.00 | 0.00 | 0.00 | 84 | 1009.1 |
| 20260504033506 | 37 | 280 | 0.0 | 0.0 | 0.00 | 0.00 | 0.00 | 84 | 1009.1 |
| 20260504033019 | 37 | 280 | 0.0 | 0.0 | 0.00 | 0.00 | 0.00 | 83 | 1009.0 |
| 20260504032507 | 37 | 280 | 0.0 | 0.0 | 0.00 | 0.00 | 0.00 | 83 | 1008.9 |
| 20260504032009 | 37 | 280 | 0.0 | 2.0 | 0.00 | 0.00 | 0.00 | 83 | 1008.9 |
| 20260504031528 | 36 | 280 | 0.0 | 2.0 | 0.00 | 0.00 | 0.00 | 82 | 1008.8 |
| 20260504031007 | 37 | 280 | 0.0 | 2.0 | 0.00 | 0.00 | 0.00 | 81 | 1008.8 |
| 20260504030508 | 37 | 280 | 0.0 | 2.0 | 0.00 | 0.00 | 0.00 | 80 | 1008.8 |
| 20260504030008 | 37 | 280 | 0.0 | 2.0 | 0.00 | 0.00 | 0.00 | 78 | 1008.8 |
| 20260504025505 | 37 | 280 | 0.0 | 2.0 | 0.00 | 0.00 | 0.00 | 83 | 1008.9 |
| 20260504025005 | 37 | 280 | 0.0 | 2.0 | 0.00 | 0.00 | 0.00 | 81 | 1008.9 |
| 20260504024511 | 37 | 280 | 0.0 | 2.0 | 0.00 | 0.00 | 0.00 | 80 | 1008.9 |
| 20260504024003 | 38 | 280 | 0.0 | 2.0 | 0.00 | 0.00 | 0.00 | 81 | 1008.8 |
| 20260504023503 | 38 | 280 | 0.0 | 0.0 | 0.00 | 0.00 | 0.00 | 79 | 1008.9 |
| 20260504023019 | 37 | 280 | 0.0 | 0.0 | 0.00 | 0.00 | 0.00 | 79 | 1008.9 |
| 20260504022503 | 38 | 280 | 0.0 | 0.0 | 0.00 | 0.00 | 0.00 | 80 | 1008.8 |
| 20260504022008 | 38 | 280 | 0.0 | 0.0 | 0.00 | 0.01 | 0.00 | 81 | 1008.9 |
| 20260504021527 | 37 | 280 | 0.0 | 0.0 | 0.00 | 0.01 | 0.00 | 81 | 1008.9 |
| 20260504021009 | 37 | 280 | 0.0 | 2.0 | 0.00 | 0.01 | 0.00 | 81 | 1008.8 |
| 20260504020506 | 37 | 280 | 0.0 | 2.0 | 0.00 | 0.01 | 0.00 | 79 | 1008.8 |
| 20260504020030 | 38 | 280 | 0.0 | 1.0 | 0.00 | 0.01 | 0.00 | 79 | 1008.7 |
| 20260504015508 | 39 | 280 | 0.0 | 0.0 | 0.00 | 0.01 | 0.00 | 76 | 1008.7 |
| 20260504015021 | 39 | 280 | 0.0 | 0.0 | 0.00 | 0.01 | 0.00 | 77 | 1008.7 |
| 20260504014510 | 39 | 280 | 0.0 | 1.0 | 0.00 | 0.01 | 0.00 | 79 | 1008.6 |
| 20260504014004 | 39 | 280 | 0.0 | 1.0 | 0.00 | 0.01 | 0.00 | 77 | 1008.5 |
| 20260504013507 | 39 | 280 | 0.0 | 2.0 | 0.00 | 0.01 | 0.00 | 77 | 1008.5 |
| 20260504013017 | 39 | 280 | 0.0 | 2.0 | 0.00 | 0.01 | 0.00 | 76 | 1008.6 |
| 20260504012510 | 40 | 280 | 0.0 | 2.0 | 0.00 | 0.01 | 0.00 | 75 | 1008.5 |
| 20260504012008 | 40 | 280 | 0.0 | 0.0 | 0.00 | 0.02 | 0.00 | 74 | 1008.6 |
| 20260504011521 | 40 | 280 | 0.0 | 0.0 | 0.00 | 0.03 | 0.00 | 71 | 1008.5 |
| 20260504011010 | 41 | 280 | 0.0 | 0.0 | 0.00 | 0.03 | 0.00 | 72 | 1008.5 |
| 20260504010513 | 41 | 280 | 0.0 | 0.0 | 0.00 | 0.03 | 0.00 | 68 | 1008.4 |
| 20260504010026 | 42 | 280 | 0.0 | 0.0 | 0.00 | 0.03 | 0.00 | 73 | 1008.2 |
| 20260504005508 | 42 | 280 | 0.0 | 0.0 | 0.00 | 0.03 | 0.00 | 72 | 1008.2 |
| 20260504005010 | 42 | 280 | 0.0 | 0.0 | 0.00 | 0.04 | 0.00 | 67 | 1008.2 |
| 20260504004526 | 43 | 280 | 0.0 | 0.0 | 0.00 | 0.04 | 0.00 | 67 | 1008.1 |
| 20260504004009 | 43 | 280 | 0.0 | 2.0 | 0.00 | 0.05 | 0.00 | 67 | 1008.1 |
| 20260504003511 | 44 | 280 | 0.0 | 2.0 | 0.00 | 0.06 | 0.00 | 66 | 1008.0 |
| 20260504003014 | 45 | 280 | 0.0 | 2.0 | 0.00 | 0.07 | 0.00 | 58 | 1008.0 |
| 20260504002505 | 45 | 280 | 0.0 | 2.0 | 0.00 | 0.07 | 0.00 | 62 | 1007.8 |
| 20260504002006 | 45 | 280 | 0.0 | 2.0 | 0.00 | 0.08 | 0.00 | 59 | 1007.8 |
| 20260504001518 | 46 | 276 | 0.0 | 3.0 | 0.00 | 0.08 | 0.00 | 54 | 1007.6 |
| 20260504001007 | 46 | 289 | 1.0 | 3.0 | 0.00 | 0.08 | 0.00 | 51 | 1007.6 |
| 20260504000507 | 47 | 298 | 1.0 | 2.0 | 0.00 | 0.08 | 0.00 | 56 | 1007.5 |
| 20260504000037 | 47 | 293 | 0.0 | 2.0 | 0.00 | 0.08 | 0.00 | 53 | 1007.4 |
| 20260503235509 | 47 | 293 | 1.0 | 4.0 | 0.00 | 0.08 | 0.00 | 50 | 1007.3 |
| 20260503235007 | 48 | 298 | 0.0 | 4.0 | 0.00 | 0.08 | 0.00 | 50 | 1007.3 |
| 20260503234526 | 48 | 298 | 2.0 | 4.0 | 0.00 | 0.08 | 0.00 | 46 | 1007.2 |
| 20260503234009 | 48 | 292 | 0.0 | 6.0 | 0.00 | 0.08 | 0.00 | 47 | 1007.2 |
| 20260503233507 | 49 | 290 | 1.0 | 8.0 | 0.00 | 0.08 | 0.00 | 46 | 1007.2 |
| 20260503233028 | 49 | 288 | 1.0 | 8.0 | 0.00 | 0.08 | 0.00 | 45 | 1007.1 |
| 20260503232513 | 49 | 285 | 1.0 | 7.0 | 0.00 | 0.08 | 0.00 | 46 | 1007.1 |
| 20260503232007 | 49 | 296 | 2.0 | 6.0 | 0.00 | 0.08 | 0.00 | 46 | 1007.0 |